createdAt,value
2018-09-28T00:00:20.337Z,6.70
2018-09-28T00:01:20.329Z,6.70
2018-09-28T00:02:20.317Z,8.20
2018-09-28T00:03:20.366Z,6.10
2018-09-28T00:04:20.301Z,5.90
2018-09-28T00:05:20.314Z,7.00
2018-09-28T00:06:20.278Z,7.00
2018-09-28T00:07:20.258Z,8.10
2018-09-28T00:08:20.280Z,8.80
2018-09-28T00:09:20.244Z,6.40
2018-09-28T00:10:20.248Z,8.00
2018-09-28T00:11:20.221Z,6.60
2018-09-28T00:12:20.212Z,8.40
2018-09-28T00:13:20.245Z,7.30
2018-09-28T00:14:20.199Z,7.20
2018-09-28T00:15:20.175Z,7.20
2018-09-28T00:16:20.205Z,8.90
2018-09-28T00:17:20.151Z,6.30
2018-09-28T00:18:20.190Z,8.10
2018-09-28T00:19:20.153Z,6.80
2018-09-28T00:20:20.121Z,6.00
2018-09-28T00:21:20.131Z,7.10
2018-09-28T00:22:20.128Z,6.60
2018-09-28T00:23:20.094Z,9.00
2018-09-28T00:24:20.106Z,8.10
2018-09-28T00:25:20.099Z,8.00
2018-09-28T00:26:20.060Z,7.90
2018-09-28T00:27:20.072Z,6.20
2018-09-28T00:28:20.037Z,6.40
2018-09-28T00:29:20.082Z,6.50
2018-09-28T00:30:20.025Z,6.50
2018-09-28T00:31:20.017Z,8.20
2018-09-28T00:32:19.991Z,8.60
2018-09-28T00:33:19.979Z,7.50
2018-09-28T00:34:19.994Z,6.90
2018-09-28T00:35:19.961Z,8.80
2018-09-28T00:36:19.952Z,7.50
2018-09-28T00:37:19.940Z,7.20
2018-09-28T00:38:19.952Z,7.30
2018-09-28T00:39:19.949Z,7.50
2018-09-28T00:40:19.920Z,8.10
2018-09-28T00:41:19.915Z,7.10
2018-09-28T00:42:19.889Z,7.40
2018-09-28T00:43:19.873Z,7.60
2018-09-28T00:44:19.867Z,9.50
2018-09-28T00:45:19.884Z,7.30
2018-09-28T00:46:19.846Z,8.40
2018-09-28T00:47:19.859Z,8.20
2018-09-28T00:48:19.825Z,10.90
2018-09-28T00:49:19.828Z,9.90
2018-09-28T00:50:19.873Z,7.60
2018-09-28T00:51:19.796Z,6.90
2018-09-28T00:52:19.781Z,8.00
2018-09-28T00:53:19.770Z,7.50
2018-09-28T00:54:19.773Z,8.50
2018-09-28T00:55:19.799Z,8.60
2018-09-28T00:56:19.740Z,8.00
2018-09-28T00:57:19.742Z,8.50
2018-09-28T00:58:19.758Z,9.70
2018-09-28T00:59:19.703Z,8.50
2018-09-28T01:00:19.754Z,10.80
2018-09-28T01:01:19.685Z,7.90
2018-09-28T01:02:19.677Z,7.90
2018-09-28T01:03:19.673Z,8.00
2018-09-28T01:04:19.691Z,8.30
2018-09-28T01:05:19.671Z,7.40
2018-09-28T01:06:19.653Z,8.80
2018-09-28T01:07:19.628Z,9.80
2018-09-28T01:08:19.627Z,8.20
2018-09-28T01:09:19.611Z,8.40
2018-09-28T01:10:19.595Z,10.70
2018-09-28T01:11:19.635Z,9.70
2018-09-28T01:12:19.576Z,9.50
2018-09-28T01:13:19.553Z,7.40
2018-09-28T01:14:19.563Z,10.10
2018-09-28T01:15:19.539Z,8.00
2018-09-28T01:16:19.548Z,11.10
2018-09-28T01:17:19.531Z,8.20
2018-09-28T01:18:19.509Z,7.90
2018-09-28T01:19:19.502Z,7.00
2018-09-28T01:20:19.490Z,9.80
2018-09-28T01:21:19.512Z,6.80
2018-09-28T01:22:19.463Z,7.60
2018-09-28T01:23:19.458Z,10.80
2018-09-28T01:24:19.443Z,7.20
2018-09-28T01:25:19.433Z,7.00
2018-09-28T01:26:19.425Z,7.70
2018-09-28T01:27:19.442Z,8.90
2018-09-28T01:28:19.394Z,7.50
2018-09-28T01:29:19.387Z,7.40
2018-09-28T01:30:26.444Z,8.60
2018-09-28T01:31:19.359Z,9.90
2018-09-28T01:32:19.378Z,8.00
2018-09-28T01:33:20.033Z,6.60
2018-09-28T01:34:19.325Z,6.80
2018-09-28T01:35:19.317Z,6.60
2018-09-28T01:36:19.308Z,7.80
2018-09-28T01:37:19.328Z,7.30
2018-09-28T01:38:19.287Z,9.40
2018-09-28T01:39:19.287Z,7.30
2018-09-28T01:40:19.278Z,6.70
2018-09-28T01:41:19.265Z,9.20
2018-09-28T01:42:19.269Z,8.10
2018-09-28T01:43:19.252Z,7.60
2018-09-28T01:44:19.229Z,7.90
2018-09-28T01:45:19.227Z,8.30
2018-09-28T01:46:19.205Z,9.00
2018-09-28T01:47:19.188Z,6.90
2018-09-28T01:48:19.207Z,7.10
2018-09-28T01:49:19.173Z,7.90
2018-09-28T01:50:19.181Z,7.10
2018-09-28T01:51:19.208Z,6.80
2018-09-28T01:52:19.146Z,7.40
2018-09-28T01:53:19.171Z,6.90
2018-09-28T01:54:19.112Z,7.90
2018-09-28T01:55:19.108Z,6.50
2018-09-28T01:56:19.097Z,6.10
2018-09-28T01:57:19.083Z,6.50
2018-09-28T01:58:19.098Z,7.80
2018-09-28T01:59:19.135Z,6.00
2018-09-28T02:00:19.071Z,6.60
2018-09-28T02:01:19.038Z,7.80
2018-09-28T02:02:19.027Z,6.80
2018-09-28T02:03:19.021Z,7.90
2018-09-28T02:04:19.125Z,7.80
2018-09-28T02:05:18.997Z,7.40
2018-09-28T02:06:18.988Z,6.60
2018-09-28T02:07:19.039Z,8.00
2018-09-28T02:08:18.972Z,7.00
2018-09-28T02:09:18.984Z,7.00
2018-09-28T02:10:18.953Z,6.60
2018-09-28T02:11:18.959Z,7.00
2018-09-28T02:12:19.011Z,7.20
2018-09-28T02:13:18.914Z,7.50
2018-09-28T02:14:18.909Z,6.90
2018-09-28T02:15:18.946Z,6.20
2018-09-28T02:16:18.877Z,6.90
2018-09-28T02:17:18.866Z,6.80
2018-09-28T02:18:18.866Z,6.60
2018-09-28T02:19:18.846Z,5.60
2018-09-28T02:20:18.869Z,6.90
2018-09-28T02:21:18.831Z,6.10
2018-09-28T02:22:18.818Z,7.00
2018-09-28T02:23:18.804Z,7.30
2018-09-28T02:24:18.823Z,6.30
2018-09-28T02:25:18.815Z,6.80
2018-09-28T02:26:18.780Z,7.60
2018-09-28T02:27:18.791Z,7.30
2018-09-28T02:28:18.762Z,7.00
2018-09-28T02:29:18.745Z,7.10
2018-09-28T02:30:18.753Z,6.50
2018-09-28T02:31:18.749Z,9.30
2018-09-28T02:32:18.710Z,6.60
2018-09-28T02:33:18.734Z,8.00
2018-09-28T02:34:18.695Z,6.80
2018-09-28T02:35:18.687Z,6.90
2018-09-28T02:36:18.701Z,6.40
2018-09-28T02:37:18.657Z,6.50
2018-09-28T02:38:18.648Z,6.40
2018-09-28T02:39:18.631Z,7.20
2018-09-28T02:40:18.636Z,7.00
2018-09-28T02:41:18.659Z,6.20
2018-09-28T02:42:18.599Z,6.50
2018-09-28T02:43:18.624Z,6.70
2018-09-28T02:44:18.583Z,6.60
2018-09-28T02:45:18.594Z,7.10
2018-09-28T02:46:18.609Z,6.70
2018-09-28T02:47:18.550Z,8.20
2018-09-28T02:48:18.540Z,7.70
2018-09-28T02:49:18.532Z,6.80
2018-09-28T02:50:18.519Z,7.10
2018-09-28T02:51:18.504Z,7.00
2018-09-28T02:52:18.534Z,9.10
2018-09-28T02:53:18.484Z,7.70
2018-09-28T02:54:18.474Z,7.30
2018-09-28T02:55:18.491Z,7.20
2018-09-28T02:56:18.454Z,7.50
2018-09-28T02:57:18.475Z,8.20
2018-09-28T02:58:18.462Z,7.20
2018-09-28T02:59:18.433Z,6.60
2018-09-28T03:00:18.412Z,7.20
2018-09-28T03:01:18.426Z,7.90
2018-09-28T03:02:18.415Z,8.40
2018-09-28T03:03:18.378Z,9.20
2018-09-28T03:04:18.380Z,6.60
2018-09-28T03:05:18.367Z,7.10
2018-09-28T03:06:18.421Z,8.00
2018-09-28T03:07:18.386Z,6.90
2018-09-28T03:08:18.318Z,6.00
2018-09-28T03:09:18.317Z,7.60
2018-09-28T03:10:18.303Z,7.70
2018-09-28T03:11:18.292Z,8.80
2018-09-28T03:12:18.294Z,8.10
2018-09-28T03:13:18.324Z,6.80
2018-09-28T03:14:18.260Z,7.00
2018-09-28T03:15:18.248Z,7.00
2018-09-28T03:16:18.276Z,7.70
2018-09-28T03:17:18.239Z,7.10
2018-09-28T03:18:18.259Z,7.80
2018-09-28T03:19:18.202Z,6.60
2018-09-28T03:20:18.200Z,8.00
2018-09-28T03:21:18.205Z,7.90
2018-09-28T03:22:18.168Z,7.50
2018-09-28T03:23:18.205Z,7.40
2018-09-28T03:24:18.173Z,7.00
2018-09-28T03:25:18.138Z,7.40
2018-09-28T03:26:18.131Z,6.70
2018-09-28T03:27:18.137Z,6.70
2018-09-28T03:28:18.133Z,7.80
2018-09-28T03:29:18.121Z,8.20
2018-09-28T03:30:18.087Z,7.40
2018-09-28T03:31:18.075Z,6.80
2018-09-28T03:32:18.078Z,9.70
2018-09-28T03:33:18.061Z,7.70
2018-09-28T03:34:18.069Z,6.50
2018-09-28T03:35:18.040Z,7.10
2018-09-28T03:36:18.054Z,6.70
2018-09-28T03:37:18.050Z,6.70
2018-09-28T03:38:18.004Z,6.70
2018-09-28T03:39:18.024Z,7.10
2018-09-28T03:40:17.980Z,7.40
2018-09-28T03:41:17.963Z,7.00
2018-09-28T03:42:17.972Z,7.70
2018-09-28T03:43:17.960Z,6.60
2018-09-28T03:44:17.971Z,7.10
2018-09-28T03:45:17.945Z,7.50
2018-09-28T03:46:17.927Z,7.10
2018-09-28T03:47:17.906Z,8.10
2018-09-28T03:48:17.899Z,6.60
2018-09-28T03:49:17.880Z,7.10
2018-09-28T03:50:17.910Z,10.90
2018-09-28T03:51:17.918Z,8.30
2018-09-28T03:52:17.877Z,7.70
2018-09-28T03:53:17.874Z,6.60
2018-09-28T03:54:17.828Z,7.20
2018-09-28T03:55:17.837Z,9.00
2018-09-28T03:56:17.821Z,7.20
2018-09-28T03:57:17.799Z,7.20
2018-09-28T03:58:17.800Z,7.50
2018-09-28T03:59:17.815Z,7.30
2018-09-28T04:00:17.807Z,7.00
2018-09-28T04:01:17.764Z,6.50
2018-09-28T04:02:17.767Z,6.70
2018-09-28T04:03:17.740Z,8.10
2018-09-28T04:04:17.723Z,8.60
2018-09-28T04:05:17.722Z,6.40
2018-09-28T04:06:17.737Z,7.10
2018-09-28T04:07:17.692Z,6.90
2018-09-28T04:08:17.677Z,8.20
2018-09-28T04:09:17.671Z,12.10
2018-09-28T04:10:17.661Z,11.50
2018-09-28T04:11:17.701Z,10.90
2018-09-28T04:12:17.636Z,32.90
2018-09-28T04:13:17.625Z,26.20
2018-09-28T04:14:17.614Z,29.90
2018-09-28T04:15:17.660Z,40.20
2018-09-28T04:16:17.651Z,57.10
2018-09-28T04:17:17.596Z,29.20
2018-09-28T04:18:17.602Z,24.60
2018-09-28T04:19:17.562Z,25.90
2018-09-28T04:20:17.559Z,26.20
2018-09-28T04:21:17.580Z,25.30
2018-09-28T04:22:17.555Z,22.50
2018-09-28T04:23:17.536Z,20.10
2018-09-28T04:24:17.525Z,17.40
2018-09-28T04:25:17.521Z,16.50
2018-09-28T04:26:17.530Z,13.40
2018-09-28T04:27:17.491Z,11.40
2018-09-28T04:28:17.463Z,9.40
2018-09-28T04:29:17.459Z,10.30
2018-09-28T04:30:17.448Z,9.20
2018-09-28T04:31:17.471Z,8.00
2018-09-28T04:32:17.473Z,9.80
2018-09-28T04:33:17.410Z,8.60
2018-09-28T04:34:17.411Z,9.50
2018-09-28T04:35:17.393Z,7.90
2018-09-28T04:36:17.373Z,9.20
2018-09-28T04:37:17.403Z,8.70
2018-09-28T04:38:17.357Z,8.40
2018-09-28T04:39:17.349Z,9.90
2018-09-28T04:40:17.351Z,8.70
2018-09-28T04:41:17.335Z,8.00
2018-09-28T04:42:17.372Z,8.40
2018-09-28T04:43:17.310Z,8.30
2018-09-28T04:44:17.300Z,7.90
2018-09-28T04:45:17.383Z,8.50
2018-09-28T04:46:17.288Z,8.80
2018-09-28T04:47:17.295Z,7.50
2018-09-28T04:48:17.281Z,7.90
2018-09-28T04:49:17.240Z,8.60
2018-09-28T04:50:17.246Z,8.50
2018-09-28T04:51:17.224Z,7.90
2018-09-28T04:52:17.216Z,8.10
2018-09-28T04:53:17.219Z,7.10
2018-09-28T04:54:17.196Z,6.20
2018-09-28T04:55:17.183Z,6.40
2018-09-28T04:56:17.182Z,6.70
2018-09-28T04:57:17.155Z,6.80
2018-09-28T04:58:17.206Z,6.20
2018-09-28T04:59:17.153Z,6.90
2018-09-28T05:00:17.120Z,7.30
2018-09-28T05:01:17.156Z,7.20
2018-09-28T05:02:17.097Z,9.30
2018-09-28T05:03:17.110Z,7.80
2018-09-28T05:04:17.080Z,7.30
2018-09-28T05:05:17.069Z,6.40
2018-09-28T05:06:17.091Z,6.70
2018-09-28T05:07:17.044Z,6.90
2018-09-28T05:08:17.086Z,6.80
2018-09-28T05:09:17.035Z,7.90
2018-09-28T05:10:17.020Z,7.80
2018-09-28T05:11:17.034Z,8.30
2018-09-28T05:12:17.000Z,7.90
2018-09-28T05:13:16.980Z,7.30
2018-09-28T05:14:16.991Z,7.40
2018-09-28T05:15:16.980Z,7.70
2018-09-28T05:16:16.946Z,7.90
2018-09-28T05:17:16.951Z,7.50
2018-09-28T05:18:16.943Z,7.50
2018-09-28T05:19:16.938Z,9.00
2018-09-28T05:20:16.911Z,7.50
2018-09-28T05:21:16.899Z,7.50
2018-09-28T05:22:16.906Z,7.10
2018-09-28T05:23:16.930Z,7.20
2018-09-28T05:24:16.901Z,7.40
2018-09-28T05:25:16.922Z,6.20
2018-09-28T05:26:16.842Z,6.60
2018-09-28T05:27:16.834Z,6.90
2018-09-28T05:28:16.839Z,6.70
2018-09-28T05:29:16.807Z,7.20
2018-09-28T05:30:16.842Z,6.70
2018-09-28T05:31:16.910Z,7.40
2018-09-28T05:32:16.898Z,7.10
2018-09-28T05:33:16.766Z,6.80
2018-09-28T05:34:16.757Z,9.70
2018-09-28T05:35:16.794Z,7.80
2018-09-28T05:36:16.741Z,8.00
2018-09-28T05:37:16.754Z,7.70
2018-09-28T05:38:16.716Z,7.70
2018-09-28T05:39:16.716Z,7.40
2018-09-28T05:40:16.696Z,7.60
2018-09-28T05:41:16.753Z,7.90
2018-09-28T05:42:16.685Z,8.30
2018-09-28T05:43:16.663Z,7.60
2018-09-28T05:44:16.685Z,9.40
2018-09-28T05:45:16.638Z,8.00
2018-09-28T05:46:16.729Z,8.20
2018-09-28T05:47:16.614Z,9.00
2018-09-28T05:48:16.622Z,7.80
2018-09-28T05:49:16.600Z,8.10
2018-09-28T05:50:16.649Z,8.40
2018-09-28T05:51:16.696Z,10.20
2018-09-28T05:52:16.573Z,8.50
2018-09-28T05:53:16.562Z,8.30
2018-09-28T05:54:16.557Z,10.40
2018-09-28T05:55:16.536Z,7.90
2018-09-28T05:56:16.570Z,8.20
2018-09-28T05:57:16.508Z,8.70
2018-09-28T05:58:16.507Z,11.30
2018-09-28T05:59:16.498Z,8.10
2018-09-28T06:00:16.488Z,9.40
2018-09-28T06:01:16.497Z,8.70
2018-09-28T06:02:16.486Z,11.50
2018-09-28T06:03:16.453Z,8.80
2018-09-28T06:04:16.445Z,9.40
2018-09-28T06:05:16.436Z,9.00
2018-09-28T06:06:16.423Z,9.30
2018-09-28T06:07:16.427Z,8.30
2018-09-28T06:08:16.391Z,8.60
2018-09-28T06:09:16.399Z,9.60
2018-09-28T06:10:16.376Z,8.80
2018-09-28T06:11:16.378Z,9.00
2018-09-28T06:12:16.382Z,8.60
2018-09-28T06:13:16.403Z,8.90
2018-09-28T06:14:16.335Z,10.70
2018-09-28T06:15:16.322Z,9.20
2018-09-28T06:16:16.310Z,10.70
2018-09-28T06:17:16.331Z,11.00
2018-09-28T06:18:16.298Z,9.00
2018-09-28T06:19:16.284Z,9.60
2018-09-28T06:20:16.322Z,9.00
2018-09-28T06:21:16.255Z,10.30
2018-09-28T06:22:16.273Z,10.10
2018-09-28T06:23:16.276Z,8.90
2018-09-28T06:24:16.284Z,9.10
2018-09-28T06:25:16.218Z,10.60
2018-09-28T06:26:16.201Z,9.70
2018-09-28T06:27:16.190Z,9.60
2018-09-28T06:28:16.215Z,8.70
2018-09-28T06:29:16.167Z,9.10
2018-09-28T06:30:16.182Z,9.10
2018-09-28T06:31:16.144Z,9.20
2018-09-28T06:32:16.134Z,9.40
2018-09-28T06:33:16.199Z,9.90
2018-09-28T06:34:16.115Z,9.90
2018-09-28T06:35:16.099Z,9.50
2018-09-28T06:36:16.153Z,9.70
2018-09-28T06:37:16.086Z,10.70
2018-09-28T06:38:16.077Z,11.20
2018-09-28T06:39:16.107Z,9.10
2018-09-28T06:40:16.057Z,9.30
2018-09-28T06:41:16.042Z,8.90
2018-09-28T06:42:16.106Z,8.90
2018-09-28T06:43:16.015Z,9.50
2018-09-28T06:44:16.027Z,9.50
2018-09-28T06:45:16.006Z,9.80
2018-09-28T06:46:15.989Z,9.00
2018-09-28T06:47:15.976Z,9.10
2018-09-28T06:48:16.031Z,8.90
2018-09-28T06:49:15.981Z,9.30
2018-09-28T06:50:15.977Z,10.00
2018-09-28T06:51:16.032Z,9.60
2018-09-28T06:52:15.945Z,10.00
2018-09-28T06:53:15.925Z,10.10
2018-09-28T06:54:15.992Z,10.60
2018-09-28T06:55:15.919Z,9.80
2018-09-28T06:56:15.880Z,10.20
2018-09-28T06:57:15.897Z,9.80
2018-09-28T06:58:15.921Z,9.80
2018-09-28T06:59:15.851Z,9.30
2018-09-28T07:00:15.954Z,10.30
2018-09-28T07:01:15.825Z,10.00
2018-09-28T07:02:15.817Z,10.20
2018-09-28T07:03:15.859Z,10.90
2018-09-28T07:04:15.790Z,9.70
2018-09-28T07:05:15.848Z,9.90
2018-09-28T07:06:15.831Z,9.70
2018-09-28T07:07:15.782Z,10.00
2018-09-28T07:08:15.746Z,9.70
2018-09-28T07:09:15.785Z,10.90
2018-09-28T07:10:15.728Z,11.00
2018-09-28T07:11:15.741Z,10.10
2018-09-28T07:12:15.743Z,9.80
2018-09-28T07:13:15.694Z,10.20
2018-09-28T07:14:15.694Z,10.60
2018-09-28T07:15:15.707Z,11.80
2018-09-28T07:16:15.736Z,10.80
2018-09-28T07:17:15.648Z,10.40
2018-09-28T07:18:15.745Z,9.70
2018-09-28T07:19:15.644Z,9.40
2018-09-28T07:20:15.633Z,9.80
2018-09-28T07:21:15.640Z,9.60
2018-09-28T07:22:15.606Z,9.60
2018-09-28T07:23:15.625Z,10.00
2018-09-28T07:24:15.609Z,10.40
2018-09-28T07:25:15.622Z,10.30
2018-09-28T07:26:15.581Z,9.90
2018-09-28T07:27:15.589Z,9.80
2018-09-28T07:28:15.530Z,10.40
2018-09-28T07:29:15.542Z,10.40
2018-09-28T07:30:15.552Z,9.70
2018-09-28T07:31:15.507Z,10.20
2018-09-28T07:32:15.529Z,11.00
2018-09-28T07:33:15.496Z,10.70
2018-09-28T07:34:15.472Z,11.30
2018-09-28T07:35:15.456Z,10.50
2018-09-28T07:36:16.159Z,10.80
2018-09-28T07:37:15.551Z,10.70
2018-09-28T07:38:15.433Z,11.60
2018-09-28T07:39:15.423Z,11.40
2018-09-28T07:40:15.408Z,11.70
2018-09-28T07:41:15.396Z,12.10
2018-09-28T07:42:15.498Z,11.00
2018-09-28T07:43:15.432Z,11.40
2018-09-28T07:44:15.416Z,10.80
2018-09-28T07:45:15.371Z,10.90
2018-09-28T07:46:15.352Z,11.20
2018-09-28T07:47:15.366Z,11.10
2018-09-28T07:48:15.366Z,10.70
2018-09-28T07:49:15.376Z,12.00
2018-09-28T07:50:15.311Z,12.30
2018-09-28T07:51:15.284Z,12.00
2018-09-28T07:52:15.283Z,12.00
2018-09-28T07:53:15.295Z,12.40
2018-09-28T07:54:15.251Z,12.40
2018-09-28T07:55:15.258Z,12.00
2018-09-28T07:56:15.249Z,12.80
2018-09-28T07:57:15.246Z,12.80
2018-09-28T07:58:15.243Z,12.40
2018-09-28T07:59:15.235Z,12.50
2018-09-28T08:00:15.212Z,12.50
2018-09-28T08:01:15.186Z,13.40
2018-09-28T08:02:15.231Z,13.40
2018-09-28T08:03:15.251Z,12.60
2018-09-28T08:04:15.227Z,12.40
2018-09-28T08:05:15.178Z,13.40
2018-09-28T08:06:15.184Z,13.00
2018-09-28T08:07:15.134Z,13.40
2018-09-28T08:08:15.129Z,12.80
2018-09-28T08:09:15.097Z,12.60
2018-09-28T08:10:15.093Z,13.80
2018-09-28T08:11:15.072Z,13.40
2018-09-28T08:12:15.062Z,13.60
2018-09-28T08:13:15.081Z,13.50
2018-09-28T08:14:15.051Z,13.10
2018-09-28T08:15:15.032Z,13.50
2018-09-28T08:16:15.037Z,13.00
2018-09-28T08:17:15.005Z,13.60
2018-09-28T08:18:15.039Z,14.10
2018-09-28T08:19:14.995Z,13.70
2018-09-28T08:20:14.980Z,13.70
2018-09-28T08:21:14.988Z,13.80
2018-09-28T08:22:14.966Z,13.80
2018-09-28T08:23:15.005Z,13.70
2018-09-28T08:24:14.945Z,13.00
2018-09-28T08:25:14.949Z,13.50
2018-09-28T08:26:14.919Z,13.50
2018-09-28T08:27:14.938Z,13.70
2018-09-28T08:28:14.908Z,14.00
2018-09-28T08:29:14.906Z,14.40
2018-09-28T08:30:14.902Z,13.80
2018-09-28T08:31:14.875Z,13.20
2018-09-28T08:32:14.852Z,14.20
2018-09-28T08:33:14.848Z,13.30
2018-09-28T08:34:14.862Z,14.00
2018-09-28T08:35:14.816Z,14.80
2018-09-28T08:36:14.929Z,13.00
2018-09-28T08:37:14.826Z,13.70
2018-09-28T08:38:14.837Z,14.00
2018-09-28T08:39:14.828Z,14.10
2018-09-28T08:40:14.797Z,14.30
2018-09-28T08:41:14.770Z,13.30
2018-09-28T08:42:14.749Z,13.40
2018-09-28T08:43:14.767Z,13.80
2018-09-28T08:44:14.809Z,13.70
2018-09-28T08:45:14.712Z,14.70
2018-09-28T08:46:14.707Z,13.80
2018-09-28T08:47:14.687Z,14.00
2018-09-28T08:48:14.692Z,13.50
2018-09-28T08:49:14.725Z,14.70
2018-09-28T08:50:14.691Z,14.60
2018-09-28T08:51:14.649Z,13.60
2018-09-28T08:52:14.630Z,13.90
2018-09-28T08:53:14.635Z,14.60
2018-09-28T08:54:14.653Z,14.40
2018-09-28T08:55:14.620Z,13.60
2018-09-28T08:56:14.587Z,13.50
2018-09-28T08:57:14.596Z,13.40
2018-09-28T08:58:14.589Z,13.20
2018-09-28T08:59:14.596Z,12.60
2018-09-28T09:00:14.554Z,12.90
2018-09-28T09:01:14.540Z,15.90
2018-09-28T09:02:14.613Z,11.50
2018-09-28T09:03:14.520Z,12.30
2018-09-28T09:04:14.546Z,12.90
2018-09-28T09:05:14.490Z,12.60
2018-09-28T09:06:14.503Z,12.80
2018-09-28T09:07:14.476Z,12.70
2018-09-28T09:08:14.463Z,11.90
2018-09-28T09:09:14.481Z,11.30
2018-09-28T09:10:14.460Z,11.60
2018-09-28T09:11:14.429Z,12.10
2018-09-28T09:12:14.454Z,11.20
2018-09-28T09:13:14.411Z,11.30
2018-09-28T09:14:14.473Z,10.80
2018-09-28T09:15:14.392Z,12.00
2018-09-28T09:16:14.397Z,12.70
2018-09-28T09:17:14.382Z,13.10
2018-09-28T09:18:14.418Z,11.70
2018-09-28T09:19:14.407Z,9.70
2018-09-28T09:20:14.329Z,10.00
2018-09-28T09:21:14.347Z,8.70
2018-09-28T09:22:14.327Z,10.30
2018-09-28T09:23:14.300Z,10.90
2018-09-28T09:24:14.309Z,9.90
2018-09-28T09:25:14.311Z,9.30
2018-09-28T09:26:14.283Z,8.90
2018-09-28T09:27:14.257Z,11.10
2018-09-28T09:28:15.064Z,8.60
2018-09-28T09:29:14.240Z,10.10
2018-09-28T09:30:14.296Z,12.00
2018-09-28T09:31:14.221Z,11.40
2018-09-28T09:32:14.201Z,9.60
2018-09-28T09:33:14.238Z,9.40
2018-09-28T09:34:14.182Z,10.50
2018-09-28T09:35:14.209Z,9.50
2018-09-28T09:36:14.171Z,9.60
2018-09-28T09:37:14.149Z,8.80
2018-09-28T09:38:14.172Z,11.10
2018-09-28T09:39:14.143Z,9.60
2018-09-28T09:40:14.141Z,8.90
2018-09-28T09:41:14.130Z,8.60
2018-09-28T09:42:14.108Z,9.30
2018-09-28T09:43:14.085Z,9.70
2018-09-28T09:44:15.103Z,8.80
2018-09-28T09:45:14.102Z,9.60
2018-09-28T09:46:14.118Z,9.80
2018-09-28T09:47:14.046Z,10.80
2018-09-28T09:48:14.045Z,8.50
2018-09-28T09:49:14.071Z,9.30
2018-09-28T09:50:14.023Z,9.30
2018-09-28T09:51:14.043Z,8.60
2018-09-28T09:52:14.005Z,11.90
2018-09-28T09:53:13.995Z,10.10
2018-09-28T09:54:13.967Z,10.90
2018-09-28T09:55:13.974Z,10.60
2018-09-28T09:56:13.978Z,9.00
2018-09-28T09:57:13.937Z,8.40
2018-09-28T09:58:13.957Z,10.60
2018-09-28T09:59:13.916Z,9.70
2018-09-28T10:00:13.929Z,10.90
2018-09-28T10:01:13.935Z,9.90
2018-09-28T10:02:13.903Z,9.20
2018-09-28T10:03:13.874Z,9.10
2018-09-28T10:04:13.862Z,8.80
2018-09-28T10:05:13.849Z,9.30
2018-09-28T10:06:13.889Z,9.20
2018-09-28T10:07:13.838Z,9.80
2018-09-28T10:08:13.824Z,9.50
2018-09-28T10:09:13.809Z,10.00
2018-09-28T10:10:13.801Z,8.80
2018-09-28T10:11:13.792Z,8.00
2018-09-28T10:12:13.851Z,8.60
2018-09-28T10:13:13.766Z,9.20
2018-09-28T10:14:13.759Z,8.60
2018-09-28T10:15:13.746Z,12.60
2018-09-28T10:16:13.747Z,9.60
2018-09-28T10:17:13.750Z,7.90
2018-09-28T10:18:13.710Z,9.70
2018-09-28T10:19:13.741Z,8.40
2018-09-28T10:20:13.729Z,10.80
2018-09-28T10:21:13.681Z,8.10
2018-09-28T10:22:13.715Z,7.60
2018-09-28T10:23:13.662Z,8.00
2018-09-28T10:24:13.657Z,7.00
2018-09-28T10:25:13.636Z,5.80
2018-09-28T10:26:13.641Z,7.00
2018-09-28T10:27:13.665Z,5.60
2018-09-28T10:28:13.769Z,8.20
2018-09-28T10:29:13.603Z,6.80
2018-09-28T10:30:13.586Z,6.70
2018-09-28T10:31:13.574Z,7.80
2018-09-28T10:32:13.598Z,6.90
2018-09-28T10:33:13.549Z,6.10
2018-09-28T10:34:13.582Z,7.90
2018-09-28T10:35:13.538Z,8.10
2018-09-28T10:36:13.525Z,6.50
2018-09-28T10:37:13.513Z,9.70
2018-09-28T10:38:13.520Z,7.90
2018-09-28T10:39:13.531Z,7.60
2018-09-28T10:40:13.492Z,8.10
2018-09-28T10:41:13.535Z,7.10
2018-09-28T10:42:13.467Z,9.00
2018-09-28T10:43:13.490Z,7.50
2018-09-28T10:44:13.525Z,9.20
2018-09-28T10:45:13.495Z,8.10
2018-09-28T10:46:13.415Z,8.80
2018-09-28T10:47:13.409Z,10.70
2018-09-28T10:48:13.422Z,11.00
2018-09-28T10:49:13.390Z,8.40
2018-09-28T10:50:13.378Z,9.20
2018-09-28T10:51:13.394Z,8.10
2018-09-28T10:52:13.478Z,7.40
2018-09-28T10:53:13.489Z,7.90
2018-09-28T10:54:13.339Z,7.90
2018-09-28T10:55:13.328Z,7.30
2018-09-28T10:56:13.314Z,9.60
2018-09-28T10:57:13.323Z,7.70
2018-09-28T10:58:13.367Z,8.00
2018-09-28T10:59:13.293Z,7.60
2018-09-28T11:00:13.313Z,6.90
2018-09-28T11:01:13.274Z,8.20
2018-09-28T11:02:13.265Z,8.20
2018-09-28T11:03:13.329Z,7.60
2018-09-28T11:04:13.266Z,7.50
2018-09-28T11:05:13.271Z,7.10
2018-09-28T11:06:13.240Z,7.20
2018-09-28T11:07:13.209Z,7.80
2018-09-28T11:08:13.204Z,8.00
2018-09-28T11:09:13.211Z,7.50
2018-09-28T11:10:13.197Z,7.70
2018-09-28T11:11:13.217Z,8.30
2018-09-28T11:12:13.160Z,8.00
2018-09-28T11:13:13.187Z,7.40
2018-09-28T11:14:13.139Z,7.50
2018-09-28T11:15:13.165Z,7.20
2018-09-28T11:16:13.123Z,7.50
2018-09-28T11:17:13.117Z,7.10
2018-09-28T11:18:13.151Z,7.40
2018-09-28T11:19:13.096Z,10.20
2018-09-28T11:20:13.079Z,9.00
2018-09-28T11:21:13.090Z,8.70
2018-09-28T11:22:13.061Z,7.40
2018-09-28T11:23:13.059Z,8.40
2018-09-28T11:24:13.062Z,7.70
2018-09-28T11:25:13.033Z,8.40
2018-09-28T11:26:13.079Z,7.20
2018-09-28T11:27:13.060Z,7.90
2018-09-28T11:28:13.041Z,7.30
2018-09-28T11:29:13.016Z,7.70
2018-09-28T11:30:12.993Z,7.70
2018-09-28T11:31:13.014Z,7.40
2018-09-28T11:32:12.969Z,9.40
2018-09-28T11:33:12.998Z,7.60
2018-09-28T11:34:12.979Z,7.00
2018-09-28T11:35:12.942Z,7.50
2018-09-28T11:36:12.958Z,6.90
2018-09-28T11:37:12.918Z,7.50
2018-09-28T11:38:12.914Z,7.60
2018-09-28T11:39:12.965Z,7.20
2018-09-28T11:40:12.918Z,7.90
2018-09-28T11:41:12.877Z,7.60
2018-09-28T11:42:12.892Z,8.50
2018-09-28T11:43:12.920Z,8.90
2018-09-28T11:44:12.853Z,7.40
2018-09-28T11:45:12.856Z,9.10
2018-09-28T11:46:12.841Z,7.10
2018-09-28T11:47:12.852Z,7.30
2018-09-28T11:48:12.832Z,7.80
2018-09-28T11:49:12.869Z,7.10
2018-09-28T11:50:12.798Z,7.20
2018-09-28T11:51:12.814Z,7.80
2018-09-28T11:52:12.806Z,6.90
2018-09-28T11:53:12.772Z,7.30
2018-09-28T11:54:12.763Z,8.70
2018-09-28T11:55:12.759Z,7.30
2018-09-28T11:56:12.749Z,7.20
2018-09-28T11:57:12.786Z,7.10
2018-09-28T11:58:12.727Z,7.70
2018-09-28T11:59:12.719Z,7.00
2018-09-28T12:00:12.716Z,8.50
2018-09-28T12:01:12.737Z,8.70
2018-09-28T12:02:12.739Z,7.80
2018-09-28T12:03:12.706Z,8.00
2018-09-28T12:04:12.706Z,7.50
2018-09-28T12:05:12.689Z,7.50
2018-09-28T12:06:12.674Z,7.80
2018-09-28T12:07:12.650Z,7.20
2018-09-28T12:08:12.630Z,7.10
2018-09-28T12:09:13.141Z,6.80
2018-09-28T12:10:12.617Z,7.50
2018-09-28T12:11:12.599Z,7.30
2018-09-28T12:12:12.650Z,7.30
2018-09-28T12:13:12.583Z,6.90
2018-09-28T12:14:12.605Z,7.60
2018-09-28T12:15:12.604Z,8.90
2018-09-28T12:16:12.560Z,7.60
2018-09-28T12:17:12.568Z,8.60
2018-09-28T12:18:12.565Z,7.20
2018-09-28T12:19:12.564Z,9.00
2018-09-28T12:20:12.533Z,6.90
2018-09-28T12:21:12.541Z,6.00
2018-09-28T12:22:12.495Z,8.20
2018-09-28T12:23:12.483Z,7.10
2018-09-28T12:24:12.571Z,6.90
2018-09-28T12:25:12.497Z,7.20
2018-09-28T12:26:12.465Z,8.10
2018-09-28T12:27:12.500Z,6.80
2018-09-28T12:28:12.438Z,7.40
2018-09-28T12:29:12.459Z,7.30
2018-09-28T12:30:12.471Z,6.60
2018-09-28T12:31:12.411Z,7.80
2018-09-28T12:32:12.411Z,7.50
2018-09-28T12:33:12.413Z,7.40
2018-09-28T12:34:12.381Z,6.30
2018-09-28T12:35:12.418Z,6.00
2018-09-28T12:36:12.373Z,7.80
2018-09-28T12:37:12.352Z,6.80
2018-09-28T12:38:12.339Z,7.30
2018-09-28T12:39:12.390Z,7.60
2018-09-28T12:40:12.621Z,7.60
2018-09-28T12:41:12.319Z,7.30
2018-09-28T12:42:12.332Z,5.70
2018-09-28T12:43:12.298Z,6.70
2018-09-28T12:44:12.318Z,5.90
2018-09-28T12:45:12.441Z,6.00
2018-09-28T12:46:12.264Z,9.30
2018-09-28T12:47:12.249Z,6.70
2018-09-28T12:48:12.244Z,7.20
2018-09-28T12:49:12.251Z,5.70
2018-09-28T12:50:12.302Z,6.00
2018-09-28T12:51:12.249Z,7.20
2018-09-28T12:52:12.204Z,7.70
2018-09-28T12:53:12.197Z,5.80
2018-09-28T12:54:12.220Z,7.40
2018-09-28T12:55:12.226Z,6.50
2018-09-28T12:56:12.225Z,6.80
2018-09-28T12:57:12.157Z,6.10
2018-09-28T12:58:12.182Z,6.30
2018-09-28T12:59:12.191Z,8.90
2018-09-28T13:00:12.187Z,6.10
2018-09-28T13:01:12.372Z,6.90
2018-09-28T13:02:12.151Z,7.50
2018-09-28T13:03:12.107Z,6.20
2018-09-28T13:04:12.173Z,6.60
2018-09-28T13:05:12.082Z,8.10
2018-09-28T13:06:12.105Z,5.60
2018-09-28T13:07:12.065Z,5.60
2018-09-28T13:08:12.096Z,6.40
2018-09-28T13:09:12.042Z,5.20
2018-09-28T13:10:12.039Z,7.30
2018-09-28T13:11:12.023Z,5.60
2018-09-28T13:12:12.065Z,6.20